sensor_id;sensor_type;location;lat;lon;timestamp;P1;durP1;ratioP1;P2;durP2;ratioP2
8048;SDS011;20935;42.660;23.342;2024-02-21T00:01:14;7.13;;;5.30;;
8048;SDS011;20935;42.660;23.342;2024-02-21T00:04:00;7.33;;;5.97;;
8048;SDS011;20935;42.660;23.342;2024-02-21T00:06:47;7.80;;;5.67;;
8048;SDS011;20935;42.660;23.342;2024-02-21T00:09:34;6.10;;;5.50;;
8048;SDS011;20935;42.660;23.342;2024-02-21T00:12:21;6.03;;;5.07;;
8048;SDS011;20935;42.660;23.342;2024-02-21T00:15:09;6.17;;;5.50;;
8048;SDS011;20935;42.660;23.342;2024-02-21T00:17:56;7.17;;;6.13;;
8048;SDS011;20935;42.660;23.342;2024-02-21T00:20:43;7.67;;;6.43;;
8048;SDS011;20935;42.660;23.342;2024-02-21T00:23:30;6.90;;;6.27;;
8048;SDS011;20935;42.660;23.342;2024-02-21T00:26:17;6.27;;;5.60;;
8048;SDS011;20935;42.660;23.342;2024-02-21T00:29:03;7.23;;;6.17;;
8048;SDS011;20935;42.660;23.342;2024-02-21T00:31:52;6.70;;;5.97;;
8048;SDS011;20935;42.660;23.342;2024-02-21T00:34:39;6.93;;;5.93;;
8048;SDS011;20935;42.660;23.342;2024-02-21T00:37:25;6.73;;;5.80;;
8048;SDS011;20935;42.660;23.342;2024-02-21T00:40:12;6.60;;;5.43;;
8048;SDS011;20935;42.660;23.342;2024-02-21T00:43:01;6.70;;;5.40;;
8048;SDS011;20935;42.660;23.342;2024-02-21T00:45:48;5.73;;;4.93;;
8048;SDS011;20935;42.660;23.342;2024-02-21T00:48:36;6.03;;;4.97;;
8048;SDS011;20935;42.660;23.342;2024-02-21T00:51:23;5.97;;;5.30;;
8048;SDS011;20935;42.660;23.342;2024-02-21T00:54:10;6.70;;;5.77;;
8048;SDS011;20935;42.660;23.342;2024-02-21T00:56:57;5.60;;;4.83;;
8048;SDS011;20935;42.660;23.342;2024-02-21T00:59:44;5.53;;;5.00;;
8048;SDS011;20935;42.660;23.342;2024-02-21T01:02:30;7.13;;;5.83;;
8048;SDS011;20935;42.660;23.342;2024-02-21T01:05:19;6.70;;;5.17;;
8048;SDS011;20935;42.660;23.342;2024-02-21T01:08:06;6.30;;;5.70;;
8048;SDS011;20935;42.660;23.342;2024-02-21T01:10:52;7.10;;;6.40;;
8048;SDS011;20935;42.660;23.342;2024-02-21T01:13:39;6.47;;;5.40;;
8048;SDS011;20935;42.660;23.342;2024-02-21T01:16:26;6.07;;;5.47;;
8048;SDS011;20935;42.660;23.342;2024-02-21T01:19:13;6.00;;;5.40;;
8048;SDS011;20935;42.660;23.342;2024-02-21T01:22:01;7.10;;;6.40;;
8048;SDS011;20935;42.660;23.342;2024-02-21T01:24:48;6.37;;;5.40;;
8048;SDS011;20935;42.660;23.342;2024-02-21T01:27:35;6.37;;;5.47;;
8048;SDS011;20935;42.660;23.342;2024-02-21T01:30:21;7.97;;;6.17;;
8048;SDS011;20935;42.660;23.342;2024-02-21T01:33:09;6.60;;;5.90;;
8048;SDS011;20935;42.660;23.342;2024-02-21T01:35:56;9.17;;;6.43;;
8048;SDS011;20935;42.660;23.342;2024-02-21T01:38:44;6.90;;;5.83;;
8048;SDS011;20935;42.660;23.342;2024-02-21T01:41:31;6.00;;;5.40;;
8048;SDS011;20935;42.660;23.342;2024-02-21T01:44:17;7.80;;;6.00;;
8048;SDS011;20935;42.660;23.342;2024-02-21T01:47:04;8.10;;;6.10;;
8048;SDS011;20935;42.660;23.342;2024-02-21T01:49:51;6.93;;;5.67;;
8048;SDS011;20935;42.660;23.342;2024-02-21T01:52:38;7.40;;;6.57;;
8048;SDS011;20935;42.660;23.342;2024-02-21T01:55:29;6.73;;;5.80;;
8048;SDS011;20935;42.660;23.342;2024-02-21T01:58:19;7.67;;;6.47;;
8048;SDS011;20935;42.660;23.342;2024-02-21T02:01:06;7.67;;;6.20;;
8048;SDS011;20935;42.660;23.342;2024-02-21T02:03:53;7.10;;;6.30;;
8048;SDS011;20935;42.660;23.342;2024-02-21T02:06:41;7.70;;;6.13;;
8048;SDS011;20935;42.660;23.342;2024-02-21T02:09:28;8.67;;;6.87;;
8048;SDS011;20935;42.660;23.342;2024-02-21T02:12:16;8.97;;;6.90;;
8048;SDS011;20935;42.660;23.342;2024-02-21T02:15:03;8.40;;;6.80;;
8048;SDS011;20935;42.660;23.342;2024-02-21T02:17:53;9.70;;;7.43;;
8048;SDS011;20935;42.660;23.342;2024-02-21T02:20:40;10.27;;;8.30;;
8048;SDS011;20935;42.660;23.342;2024-02-21T02:23:28;10.30;;;7.53;;
8048;SDS011;20935;42.660;23.342;2024-02-21T02:26:16;11.07;;;8.53;;
8048;SDS011;20935;42.660;23.342;2024-02-21T02:29:03;11.67;;;8.57;;
8048;SDS011;20935;42.660;23.342;2024-02-21T02:31:53;11.20;;;9.83;;
8048;SDS011;20935;42.660;23.342;2024-02-21T02:34:40;11.13;;;9.43;;
8048;SDS011;20935;42.660;23.342;2024-02-21T02:37:27;12.37;;;8.60;;
8048;SDS011;20935;42.660;23.342;2024-02-21T02:40:15;12.07;;;8.70;;
8048;SDS011;20935;42.660;23.342;2024-02-21T02:43:02;10.73;;;8.73;;
8048;SDS011;20935;42.660;23.342;2024-02-21T02:45:48;13.87;;;9.87;;
8048;SDS011;20935;42.660;23.342;2024-02-21T02:48:35;12.37;;;10.00;;
8048;SDS011;20935;42.660;23.342;2024-02-21T02:51:23;12.43;;;9.37;;
8048;SDS011;20935;42.660;23.342;2024-02-21T02:54:10;12.50;;;9.73;;
8048;SDS011;20935;42.660;23.342;2024-02-21T02:57:02;11.20;;;9.33;;
8048;SDS011;20935;42.660;23.342;2024-02-21T02:59:50;11.30;;;8.67;;
8048;SDS011;20935;42.660;23.342;2024-02-21T03:02:38;13.13;;;10.23;;
8048;SDS011;20935;42.660;23.342;2024-02-21T03:05:25;14.73;;;9.77;;
8048;SDS011;20935;42.660;23.342;2024-02-21T03:08:12;13.37;;;9.87;;
8048;SDS011;20935;42.660;23.342;2024-02-21T03:10:59;14.47;;;10.00;;
8048;SDS011;20935;42.660;23.342;2024-02-21T03:13:47;12.50;;;9.43;;
8048;SDS011;20935;42.660;23.342;2024-02-21T03:16:34;12.60;;;9.70;;
8048;SDS011;20935;42.660;23.342;2024-02-21T03:19:21;11.73;;;9.77;;
8048;SDS011;20935;42.660;23.342;2024-02-21T03:22:07;11.83;;;9.77;;
8048;SDS011;20935;42.660;23.342;2024-02-21T03:24:54;12.30;;;8.83;;
8048;SDS011;20935;42.660;23.342;2024-02-21T03:27:41;12.70;;;10.17;;
8048;SDS011;20935;42.660;23.342;2024-02-21T03:30:30;12.87;;;9.70;;
8048;SDS011;20935;42.660;23.342;2024-02-21T03:33:16;12.40;;;9.47;;
8048;SDS011;20935;42.660;23.342;2024-02-21T03:36:05;14.27;;;10.23;;
8048;SDS011;20935;42.660;23.342;2024-02-21T03:38:52;12.90;;;10.20;;
8048;SDS011;20935;42.660;23.342;2024-02-21T03:41:39;13.00;;;9.70;;
8048;SDS011;20935;42.660;23.342;2024-02-21T03:44:25;14.23;;;10.17;;
8048;SDS011;20935;42.660;23.342;2024-02-21T03:47:14;13.97;;;10.13;;
8048;SDS011;20935;42.660;23.342;2024-02-21T03:50:01;11.60;;;9.37;;
8048;SDS011;20935;42.660;23.342;2024-02-21T03:52:47;13.13;;;9.93;;
8048;SDS011;20935;42.660;23.342;2024-02-21T03:55:34;14.77;;;10.30;;
8048;SDS011;20935;42.660;23.342;2024-02-21T03:58:21;12.53;;;9.87;;
8048;SDS011;20935;42.660;23.342;2024-02-21T04:01:08;12.03;;;10.07;;
8048;SDS011;20935;42.660;23.342;2024-02-21T04:03:56;12.83;;;9.90;;
8048;SDS011;20935;42.660;23.342;2024-02-21T04:06:46;11.97;;;9.77;;
8048;SDS011;20935;42.660;23.342;2024-02-21T04:09:33;15.27;;;9.87;;
8048;SDS011;20935;42.660;23.342;2024-02-21T04:12:20;14.73;;;10.93;;
8048;SDS011;20935;42.660;23.342;2024-02-21T04:15:07;12.83;;;10.43;;
8048;SDS011;20935;42.660;23.342;2024-02-21T04:17:54;18.50;;;11.13;;
8048;SDS011;20935;42.660;23.342;2024-02-21T04:20:42;12.30;;;10.33;;
8048;SDS011;20935;42.660;23.342;2024-02-21T04:23:29;14.23;;;10.93;;
8048;SDS011;20935;42.660;23.342;2024-02-21T04:26:16;13.43;;;10.43;;
8048;SDS011;20935;42.660;23.342;2024-02-21T04:29:02;15.80;;;11.83;;
8048;SDS011;20935;42.660;23.342;2024-02-21T04:31:49;14.00;;;10.47;;
8048;SDS011;20935;42.660;23.342;2024-02-21T04:34:36;15.53;;;11.47;;
8048;SDS011;20935;42.660;23.342;2024-02-21T04:37:27;16.20;;;11.87;;
8048;SDS011;20935;42.660;23.342;2024-02-21T04:40:14;14.77;;;11.40;;
8048;SDS011;20935;42.660;23.342;2024-02-21T04:43:02;18.97;;;12.67;;
8048;SDS011;20935;42.660;23.342;2024-02-21T04:45:49;15.57;;;11.00;;
8048;SDS011;20935;42.660;23.342;2024-02-21T04:48:36;15.27;;;11.60;;
8048;SDS011;20935;42.660;23.342;2024-02-21T04:51:22;16.83;;;11.70;;
8048;SDS011;20935;42.660;23.342;2024-02-21T04:54:11;15.63;;;11.13;;
8048;SDS011;20935;42.660;23.342;2024-02-21T04:56:58;16.30;;;12.40;;
8048;SDS011;20935;42.660;23.342;2024-02-21T04:59:44;16.30;;;11.80;;
8048;SDS011;20935;42.660;23.342;2024-02-21T05:02:35;15.20;;;11.97;;
8048;SDS011;20935;42.660;23.342;2024-02-21T05:05:25;16.23;;;12.13;;
8048;SDS011;20935;42.660;23.342;2024-02-21T05:08:13;16.33;;;12.43;;
8048;SDS011;20935;42.660;23.342;2024-02-21T05:11:01;14.67;;;11.90;;
8048;SDS011;20935;42.660;23.342;2024-02-21T05:13:48;15.80;;;11.67;;
8048;SDS011;20935;42.660;23.342;2024-02-21T05:16:34;17.03;;;13.17;;
8048;SDS011;20935;42.660;23.342;2024-02-21T05:19:21;16.20;;;11.47;;
8048;SDS011;20935;42.660;23.342;2024-02-21T05:22:08;15.80;;;11.80;;
8048;SDS011;20935;42.660;23.342;2024-02-21T05:24:55;15.27;;;11.43;;
8048;SDS011;20935;42.660;23.342;2024-02-21T05:27:43;15.27;;;12.17;;
8048;SDS011;20935;42.660;23.342;2024-02-21T05:30:31;15.53;;;12.53;;
8048;SDS011;20935;42.660;23.342;2024-02-21T05:33:17;15.40;;;11.20;;
8048;SDS011;20935;42.660;23.342;2024-02-21T05:36:06;19.57;;;11.50;;
8048;SDS011;20935;42.660;23.342;2024-02-21T05:38:53;16.50;;;11.77;;
8048;SDS011;20935;42.660;23.342;2024-02-21T05:41:43;17.50;;;12.53;;
8048;SDS011;20935;42.660;23.342;2024-02-21T05:44:31;17.47;;;12.73;;
8048;SDS011;20935;42.660;23.342;2024-02-21T05:47:18;20.13;;;12.87;;
8048;SDS011;20935;42.660;23.342;2024-02-21T05:50:06;17.20;;;12.60;;
8048;SDS011;20935;42.660;23.342;2024-02-21T05:52:56;17.03;;;13.40;;
8048;SDS011;20935;42.660;23.342;2024-02-21T05:55:43;17.93;;;13.57;;
8048;SDS011;20935;42.660;23.342;2024-02-21T05:58:30;20.20;;;14.33;;
8048;SDS011;20935;42.660;23.342;2024-02-21T06:01:18;19.57;;;14.33;;
8048;SDS011;20935;42.660;23.342;2024-02-21T06:04:06;20.23;;;13.63;;
8048;SDS011;20935;42.660;23.342;2024-02-21T06:06:53;16.80;;;13.63;;
8048;SDS011;20935;42.660;23.342;2024-02-21T06:09:40;19.27;;;14.30;;
8048;SDS011;20935;42.660;23.342;2024-02-21T06:12:27;19.13;;;13.10;;
8048;SDS011;20935;42.660;23.342;2024-02-21T06:15:14;16.93;;;13.13;;
8048;SDS011;20935;42.660;23.342;2024-02-21T06:18:02;16.77;;;13.37;;
8048;SDS011;20935;42.660;23.342;2024-02-21T06:20:49;15.73;;;12.20;;
8048;SDS011;20935;42.660;23.342;2024-02-21T06:23:36;20.50;;;13.93;;
8048;SDS011;20935;42.660;23.342;2024-02-21T06:26:23;18.37;;;12.87;;
8048;SDS011;20935;42.660;23.342;2024-02-21T06:29:10;22.00;;;14.60;;
8048;SDS011;20935;42.660;23.342;2024-02-21T06:31:59;18.77;;;13.50;;
8048;SDS011;20935;42.660;23.342;2024-02-21T06:34:50;20.50;;;13.73;;
8048;SDS011;20935;42.660;23.342;2024-02-21T06:37:37;18.67;;;13.60;;
8048;SDS011;20935;42.660;23.342;2024-02-21T06:40:24;22.00;;;13.80;;
8048;SDS011;20935;42.660;23.342;2024-02-21T06:43:11;21.53;;;14.40;;
8048;SDS011;20935;42.660;23.342;2024-02-21T06:45:58;19.27;;;14.30;;
8048;SDS011;20935;42.660;23.342;2024-02-21T06:48:45;18.17;;;13.10;;
8048;SDS011;20935;42.660;23.342;2024-02-21T06:51:33;19.70;;;13.97;;
8048;SDS011;20935;42.660;23.342;2024-02-21T06:54:22;18.13;;;13.83;;
8048;SDS011;20935;42.660;23.342;2024-02-21T07:09:39;21.33;;;16.13;;
8048;SDS011;20935;42.660;23.342;2024-02-21T07:12:25;20.20;;;13.70;;
8048;SDS011;20935;42.660;23.342;2024-02-21T07:15:10;18.93;;;14.50;;
8048;SDS011;20935;42.660;23.342;2024-02-21T07:17:55;16.60;;;12.57;;
8048;SDS011;20935;42.660;23.342;2024-02-21T07:20:40;18.63;;;13.13;;
8048;SDS011;20935;42.660;23.342;2024-02-21T07:23:26;18.67;;;14.53;;
8048;SDS011;20935;42.660;23.342;2024-02-21T07:26:15;19.80;;;14.17;;
8048;SDS011;20935;42.660;23.342;2024-02-21T07:29:00;20.33;;;13.80;;
8048;SDS011;20935;42.660;23.342;2024-02-21T07:31:46;19.77;;;15.30;;
8048;SDS011;20935;42.660;23.342;2024-02-21T07:34:32;22.20;;;15.13;;
8048;SDS011;20935;42.660;23.342;2024-02-21T07:37:17;20.77;;;14.33;;
8048;SDS011;20935;42.660;23.342;2024-02-21T07:40:03;23.23;;;14.03;;
8048;SDS011;20935;42.660;23.342;2024-02-21T07:42:50;20.13;;;14.07;;
8048;SDS011;20935;42.660;23.342;2024-02-21T07:45:35;20.67;;;16.23;;
8048;SDS011;20935;42.660;23.342;2024-02-21T07:48:22;20.20;;;14.37;;
8048;SDS011;20935;42.660;23.342;2024-02-21T07:51:08;21.47;;;15.07;;
8048;SDS011;20935;42.660;23.342;2024-02-21T07:53:53;18.77;;;15.17;;
8048;SDS011;20935;42.660;23.342;2024-02-21T07:56:39;18.47;;;13.97;;
8048;SDS011;20935;42.660;23.342;2024-02-21T07:59:25;19.27;;;14.30;;
8048;SDS011;20935;42.660;23.342;2024-02-21T08:02:11;19.80;;;14.73;;
8048;SDS011;20935;42.660;23.342;2024-02-21T08:04:59;22.30;;;15.53;;
8048;SDS011;20935;42.660;23.342;2024-02-21T08:07:44;20.07;;;14.23;;
8048;SDS011;20935;42.660;23.342;2024-02-21T08:10:29;21.57;;;17.00;;
8048;SDS011;20935;42.660;23.342;2024-02-21T08:13:15;20.27;;;14.33;;
8048;SDS011;20935;42.660;23.342;2024-02-21T08:16:01;18.33;;;14.23;;
8048;SDS011;20935;42.660;23.342;2024-02-21T08:18:47;21.07;;;13.03;;
8048;SDS011;20935;42.660;23.342;2024-02-21T08:21:32;18.17;;;13.30;;
8048;SDS011;20935;42.660;23.342;2024-02-21T08:24:17;18.70;;;14.83;;
8048;SDS011;20935;42.660;23.342;2024-02-21T08:27:02;21.07;;;13.47;;
8048;SDS011;20935;42.660;23.342;2024-02-21T08:29:48;17.13;;;12.83;;
8048;SDS011;20935;42.660;23.342;2024-02-21T08:32:34;16.30;;;11.87;;
8048;SDS011;20935;42.660;23.342;2024-02-21T08:35:25;14.20;;;11.40;;
8048;SDS011;20935;42.660;23.342;2024-02-21T08:38:10;15.33;;;12.57;;
8048;SDS011;20935;42.660;23.342;2024-02-21T08:40:55;17.07;;;12.30;;
8048;SDS011;20935;42.660;23.342;2024-02-21T08:43:40;16.10;;;13.73;;
8048;SDS011;20935;42.660;23.342;2024-02-21T08:46:26;14.90;;;12.33;;
8048;SDS011;20935;42.660;23.342;2024-02-21T08:49:13;15.93;;;12.73;;
8048;SDS011;20935;42.660;23.342;2024-02-21T08:51:58;19.60;;;11.80;;
8048;SDS011;20935;42.660;23.342;2024-02-21T08:54:44;16.90;;;12.57;;
8048;SDS011;20935;42.660;23.342;2024-02-21T08:57:29;14.43;;;11.57;;
8048;SDS011;20935;42.660;23.342;2024-02-21T09:00:20;14.47;;;11.13;;
8048;SDS011;20935;42.660;23.342;2024-02-21T09:03:10;14.23;;;11.07;;
8048;SDS011;20935;42.660;23.342;2024-02-21T09:05:56;15.87;;;10.63;;
8048;SDS011;20935;42.660;23.342;2024-02-21T09:08:41;11.43;;;10.23;;
8048;SDS011;20935;42.660;23.342;2024-02-21T09:11:30;12.20;;;10.70;;
8048;SDS011;20935;42.660;23.342;2024-02-21T09:14:15;12.70;;;11.13;;
8048;SDS011;20935;42.660;23.342;2024-02-21T09:17:00;15.50;;;11.90;;
8048;SDS011;20935;42.660;23.342;2024-02-21T09:19:46;13.30;;;11.33;;
8048;SDS011;20935;42.660;23.342;2024-02-21T09:22:35;12.37;;;10.33;;
8048;SDS011;20935;42.660;23.342;2024-02-21T09:25:21;15.77;;;12.03;;
8048;SDS011;20935;42.660;23.342;2024-02-21T09:28:06;15.20;;;13.00;;
8048;SDS011;20935;42.660;23.342;2024-02-21T09:30:51;15.17;;;11.57;;
8048;SDS011;20935;42.660;23.342;2024-02-21T09:33:37;17.83;;;13.93;;
8048;SDS011;20935;42.660;23.342;2024-02-21T09:36:22;15.30;;;13.03;;
8048;SDS011;20935;42.660;23.342;2024-02-21T09:39:09;15.93;;;13.03;;
8048;SDS011;20935;42.660;23.342;2024-02-21T09:41:58;14.87;;;12.73;;
8048;SDS011;20935;42.660;23.342;2024-02-21T09:44:44;14.23;;;12.57;;
8048;SDS011;20935;42.660;23.342;2024-02-21T09:47:34;14.97;;;11.50;;
8048;SDS011;20935;42.660;23.342;2024-02-21T09:50:24;14.80;;;12.67;;
8048;SDS011;20935;42.660;23.342;2024-02-21T09:53:11;12.77;;;11.43;;
8048;SDS011;20935;42.660;23.342;2024-02-21T09:55:58;16.23;;;12.37;;
8048;SDS011;20935;42.660;23.342;2024-02-21T09:58:43;14.87;;;11.93;;
8048;SDS011;20935;42.660;23.342;2024-02-21T10:01:31;12.57;;;9.70;;
8048;SDS011;20935;42.660;23.342;2024-02-21T10:04:17;15.13;;;11.53;;
8048;SDS011;20935;42.660;23.342;2024-02-21T10:07:02;11.63;;;10.30;;
8048;SDS011;20935;42.660;23.342;2024-02-21T10:09:48;12.73;;;10.20;;
8048;SDS011;20935;42.660;23.342;2024-02-21T10:12:34;11.70;;;9.47;;
8048;SDS011;20935;42.660;23.342;2024-02-21T10:15:20;15.00;;;9.73;;
8048;SDS011;20935;42.660;23.342;2024-02-21T10:18:06;11.43;;;9.10;;
8048;SDS011;20935;42.660;23.342;2024-02-21T10:20:59;14.00;;;10.40;;
8048;SDS011;20935;42.660;23.342;2024-02-21T10:23:44;12.07;;;10.17;;
8048;SDS011;20935;42.660;23.342;2024-02-21T10:26:29;13.83;;;11.13;;
8048;SDS011;20935;42.660;23.342;2024-02-21T10:29:16;14.20;;;10.47;;
8048;SDS011;20935;42.660;23.342;2024-02-21T10:32:05;11.93;;;10.53;;
8048;SDS011;20935;42.660;23.342;2024-02-21T10:35:00;11.10;;;8.93;;
8048;SDS011;20935;42.660;23.342;2024-02-21T10:37:48;11.10;;;9.90;;
8048;SDS011;20935;42.660;23.342;2024-02-21T10:40:34;11.73;;;9.57;;
8048;SDS011;20935;42.660;23.342;2024-02-21T10:43:19;9.80;;;8.23;;
8048;SDS011;20935;42.660;23.342;2024-02-21T10:46:07;10.70;;;8.90;;
8048;SDS011;20935;42.660;23.342;2024-02-21T10:48:57;10.77;;;9.20;;
8048;SDS011;20935;42.660;23.342;2024-02-21T10:51:44;8.67;;;7.77;;
8048;SDS011;20935;42.660;23.342;2024-02-21T10:54:36;8.97;;;8.07;;
8048;SDS011;20935;42.660;23.342;2024-02-21T10:57:24;8.40;;;7.50;;
8048;SDS011;20935;42.660;23.342;2024-02-21T11:00:11;10.70;;;8.47;;
8048;SDS011;20935;42.660;23.342;2024-02-21T11:02:58;8.90;;;8.00;;
8048;SDS011;20935;42.660;23.342;2024-02-21T11:05:47;9.40;;;8.40;;
8048;SDS011;20935;42.660;23.342;2024-02-21T11:08:35;10.03;;;8.00;;
8048;SDS011;20935;42.660;23.342;2024-02-21T11:11:20;8.53;;;6.63;;
8048;SDS011;20935;42.660;23.342;2024-02-21T11:14:09;7.70;;;6.43;;
8048;SDS011;20935;42.660;23.342;2024-02-21T11:16:54;7.60;;;6.80;;
8048;SDS011;20935;42.660;23.342;2024-02-21T11:19:42;8.53;;;7.37;;
8048;SDS011;20935;42.660;23.342;2024-02-21T11:22:27;7.40;;;6.60;;
8048;SDS011;20935;42.660;23.342;2024-02-21T11:25:21;7.43;;;6.13;;
8048;SDS011;20935;42.660;23.342;2024-02-21T11:28:06;7.13;;;5.60;;
8048;SDS011;20935;42.660;23.342;2024-02-21T11:31:04;6.07;;;5.47;;
8048;SDS011;20935;42.660;23.342;2024-02-21T11:33:49;5.83;;;5.03;;
8048;SDS011;20935;42.660;23.342;2024-02-21T11:36:39;5.83;;;5.27;;
8048;SDS011;20935;42.660;23.342;2024-02-21T11:39:31;6.10;;;5.50;;
8048;SDS011;20935;42.660;23.342;2024-02-21T11:42:19;5.43;;;4.50;;
8048;SDS011;20935;42.660;23.342;2024-02-21T11:45:05;4.30;;;3.90;;
8048;SDS011;20935;42.660;23.342;2024-02-21T11:47:50;6.00;;;5.50;;
8048;SDS011;20935;42.660;23.342;2024-02-21T11:50:35;5.87;;;5.30;;
8048;SDS011;20935;42.660;23.342;2024-02-21T11:53:22;5.30;;;4.80;;
8048;SDS011;20935;42.660;23.342;2024-02-21T11:56:17;5.77;;;4.87;;
8048;SDS011;20935;42.660;23.342;2024-02-21T11:59:03;6.07;;;5.47;;
8048;SDS011;20935;42.660;23.342;2024-02-21T12:01:50;4.80;;;4.40;;
8048;SDS011;20935;42.660;23.342;2024-02-21T12:04:36;6.17;;;5.37;;
8048;SDS011;20935;42.660;23.342;2024-02-21T12:07:21;5.73;;;5.23;;
8048;SDS011;20935;42.660;23.342;2024-02-21T12:10:09;6.83;;;5.10;;
8048;SDS011;20935;42.660;23.342;2024-02-21T12:13:04;5.60;;;5.10;;
8048;SDS011;20935;42.660;23.342;2024-02-21T12:15:49;5.33;;;4.93;;
8048;SDS011;20935;42.660;23.342;2024-02-21T12:18:35;5.27;;;4.77;;
8048;SDS011;20935;42.660;23.342;2024-02-21T12:21:23;5.93;;;5.33;;
8048;SDS011;20935;42.660;23.342;2024-02-21T12:24:11;5.90;;;5.30;;
8048;SDS011;20935;42.660;23.342;2024-02-21T12:27:02;6.33;;;5.70;;
8048;SDS011;20935;42.660;23.342;2024-02-21T12:29:47;7.90;;;5.63;;
8048;SDS011;20935;42.660;23.342;2024-02-21T12:32:33;7.00;;;6.17;;
8048;SDS011;20935;42.660;23.342;2024-02-21T12:35:21;7.27;;;5.00;;
8048;SDS011;20935;42.660;23.342;2024-02-21T12:38:06;5.80;;;5.13;;
8048;SDS011;20935;42.660;23.342;2024-02-21T12:40:51;6.73;;;6.07;;
8048;SDS011;20935;42.660;23.342;2024-02-21T12:43:38;7.07;;;5.93;;
8048;SDS011;20935;42.660;23.342;2024-02-21T12:46:24;7.70;;;6.13;;
8048;SDS011;20935;42.660;23.342;2024-02-21T12:49:09;7.73;;;6.20;;
8048;SDS011;20935;42.660;23.342;2024-02-21T12:51:55;5.60;;;5.10;;
8048;SDS011;20935;42.660;23.342;2024-02-21T12:54:43;9.07;;;6.20;;
8048;SDS011;20935;42.660;23.342;2024-02-21T12:57:28;7.30;;;6.03;;
8048;SDS011;20935;42.660;23.342;2024-02-21T13:00:15;6.03;;;4.77;;
8048;SDS011;20935;42.660;23.342;2024-02-21T13:03:01;5.93;;;5.33;;
8048;SDS011;20935;42.660;23.342;2024-02-21T13:05:48;6.30;;;5.43;;
8048;SDS011;20935;42.660;23.342;2024-02-21T13:08:35;8.30;;;6.17;;
8048;SDS011;20935;42.660;23.342;2024-02-21T13:11:22;9.10;;;7.03;;
8048;SDS011;20935;42.660;23.342;2024-02-21T13:14:12;9.20;;;7.03;;
8048;SDS011;20935;42.660;23.342;2024-02-21T13:17:00;7.03;;;6.27;;
8048;SDS011;20935;42.660;23.342;2024-02-21T13:19:47;7.83;;;6.80;;
8048;SDS011;20935;42.660;23.342;2024-02-21T13:22:34;8.00;;;5.77;;
8048;SDS011;20935;42.660;23.342;2024-02-21T13:25:20;8.37;;;6.47;;
8048;SDS011;20935;42.660;23.342;2024-02-21T13:28:10;11.93;;;6.63;;
8048;SDS011;20935;42.660;23.342;2024-02-21T13:30:57;7.93;;;7.13;;
8048;SDS011;20935;42.660;23.342;2024-02-21T13:33:45;8.00;;;6.70;;
8048;SDS011;20935;42.660;23.342;2024-02-21T13:36:32;7.37;;;6.63;;
8048;SDS011;20935;42.660;23.342;2024-02-21T13:39:19;18.50;;;7.70;;
8048;SDS011;20935;42.660;23.342;2024-02-21T13:42:06;9.07;;;7.20;;
8048;SDS011;20935;42.660;23.342;2024-02-21T13:44:53;8.13;;;6.50;;
8048;SDS011;20935;42.660;23.342;2024-02-21T13:47:39;7.07;;;6.33;;
8048;SDS011;20935;42.660;23.342;2024-02-21T13:50:30;7.93;;;6.10;;
8048;SDS011;20935;42.660;23.342;2024-02-21T13:53:17;6.43;;;5.83;;
8048;SDS011;20935;42.660;23.342;2024-02-21T13:56:06;7.87;;;6.50;;
8048;SDS011;20935;42.660;23.342;2024-02-21T13:58:54;8.07;;;6.17;;
8048;SDS011;20935;42.660;23.342;2024-02-21T14:01:44;7.37;;;6.30;;
8048;SDS011;20935;42.660;23.342;2024-02-21T14:04:31;7.77;;;6.03;;
8048;SDS011;20935;42.660;23.342;2024-02-21T14:07:22;7.90;;;6.87;;
8048;SDS011;20935;42.660;23.342;2024-02-21T14:10:09;6.77;;;5.83;;
8048;SDS011;20935;42.660;23.342;2024-02-21T14:12:59;10.27;;;7.40;;
8048;SDS011;20935;42.660;23.342;2024-02-21T14:15:46;10.23;;;6.67;;
8048;SDS011;20935;42.660;23.342;2024-02-21T14:18:33;7.03;;;6.27;;
8048;SDS011;20935;42.660;23.342;2024-02-21T14:21:20;7.73;;;6.93;;
8048;SDS011;20935;42.660;23.342;2024-02-21T14:24:08;8.60;;;6.93;;
8048;SDS011;20935;42.660;23.342;2024-02-21T14:26:55;8.07;;;6.50;;
8048;SDS011;20935;42.660;23.342;2024-02-21T14:29:43;7.87;;;6.20;;
8048;SDS011;20935;42.660;23.342;2024-02-21T14:32:30;6.40;;;5.73;;
8048;SDS011;20935;42.660;23.342;2024-02-21T14:35:16;6.93;;;5.00;;
8048;SDS011;20935;42.660;23.342;2024-02-21T14:38:04;7.43;;;5.83;;
8048;SDS011;20935;42.660;23.342;2024-02-21T14:40:52;7.50;;;5.73;;
8048;SDS011;20935;42.660;23.342;2024-02-21T14:43:39;8.57;;;6.00;;
8048;SDS011;20935;42.660;23.342;2024-02-21T14:46:26;8.47;;;6.73;;
8048;SDS011;20935;42.660;23.342;2024-02-21T14:49:14;9.27;;;6.10;;
8048;SDS011;20935;42.660;23.342;2024-02-21T14:52:01;9.83;;;7.33;;
8048;SDS011;20935;42.660;23.342;2024-02-21T14:54:48;7.60;;;6.80;;
8048;SDS011;20935;42.660;23.342;2024-02-21T14:57:38;8.00;;;6.93;;
8048;SDS011;20935;42.660;23.342;2024-02-21T15:00:26;7.87;;;6.80;;
8048;SDS011;20935;42.660;23.342;2024-02-21T15:03:15;9.97;;;6.90;;
8048;SDS011;20935;42.660;23.342;2024-02-21T15:06:04;9.27;;;7.67;;
8048;SDS011;20935;42.660;23.342;2024-02-21T15:08:51;9.13;;;7.73;;
8048;SDS011;20935;42.660;23.342;2024-02-21T15:11:38;7.37;;;6.03;;
8048;SDS011;20935;42.660;23.342;2024-02-21T15:14:26;8.00;;;7.00;;
8048;SDS011;20935;42.660;23.342;2024-02-21T15:17:13;8.27;;;6.40;;
8048;SDS011;20935;42.660;23.342;2024-02-21T15:20:00;9.13;;;7.10;;
8048;SDS011;20935;42.660;23.342;2024-02-21T15:22:50;9.27;;;7.13;;
8048;SDS011;20935;42.660;23.342;2024-02-21T15:25:37;9.30;;;6.77;;
8048;SDS011;20935;42.660;23.342;2024-02-21T15:28:24;10.30;;;7.07;;
8048;SDS011;20935;42.660;23.342;2024-02-21T15:31:20;7.97;;;7.17;;
8048;SDS011;20935;42.660;23.342;2024-02-21T15:34:08;11.43;;;6.80;;
8048;SDS011;20935;42.660;23.342;2024-02-21T15:36:55;8.87;;;7.43;;
8048;SDS011;20935;42.660;23.342;2024-02-21T15:39:42;10.07;;;7.60;;
8048;SDS011;20935;42.660;23.342;2024-02-21T15:42:29;9.57;;;8.00;;
8048;SDS011;20935;42.660;23.342;2024-02-21T15:45:17;8.33;;;6.70;;
8048;SDS011;20935;42.660;23.342;2024-02-21T15:48:08;8.33;;;7.43;;
8048;SDS011;20935;42.660;23.342;2024-02-21T15:50:54;10.07;;;7.90;;
8048;SDS011;20935;42.660;23.342;2024-02-21T15:53:41;8.80;;;7.57;;
8048;SDS011;20935;42.660;23.342;2024-02-21T15:56:30;11.10;;;8.40;;
8048;SDS011;20935;42.660;23.342;2024-02-21T15:59:17;10.43;;;8.93;;
8048;SDS011;20935;42.660;23.342;2024-02-21T16:02:04;13.10;;;8.70;;
8048;SDS011;20935;42.660;23.342;2024-02-21T16:04:52;10.93;;;9.53;;
8048;SDS011;20935;42.660;23.342;2024-02-21T16:07:39;10.37;;;8.67;;
8048;SDS011;20935;42.660;23.342;2024-02-21T16:10:26;10.97;;;8.97;;
8048;SDS011;20935;42.660;23.342;2024-02-21T16:13:13;11.87;;;9.03;;
8048;SDS011;20935;42.660;23.342;2024-02-21T16:15:59;12.93;;;9.13;;
8048;SDS011;20935;42.660;23.342;2024-02-21T16:18:46;12.00;;;8.93;;
8048;SDS011;20935;42.660;23.342;2024-02-21T16:21:37;13.03;;;9.30;;
8048;SDS011;20935;42.660;23.342;2024-02-21T16:24:24;17.63;;;9.97;;
8048;SDS011;20935;42.660;23.342;2024-02-21T16:27:11;13.83;;;10.07;;
8048;SDS011;20935;42.660;23.342;2024-02-21T16:29:58;11.40;;;8.63;;
8048;SDS011;20935;42.660;23.342;2024-02-21T16:32:44;11.03;;;9.27;;
8048;SDS011;20935;42.660;23.342;2024-02-21T16:35:31;14.40;;;9.73;;
8048;SDS011;20935;42.660;23.342;2024-02-21T16:38:19;14.23;;;9.83;;
8048;SDS011;20935;42.660;23.342;2024-02-21T16:41:11;13.67;;;8.93;;
8048;SDS011;20935;42.660;23.342;2024-02-21T16:43:58;12.77;;;9.97;;
8048;SDS011;20935;42.660;23.342;2024-02-21T16:46:49;13.27;;;9.83;;